Time;durP1;ratioP1;P1;durP2;ratioP2;P2;SDS_P1;SDS_P2;PMS_P1;PMS_P2;Temp;Humidity;BMP_temperature;BMP_pressure;BME280_temperature;BME280_humidity;BME280_pressure;Samples;Min_cycle;Max_cycle;Signal;HPM_P1;HPM_P2
2022/03/03 00:00:44;;;;;;;31.63;17.00;;;-0.70;99.90;;;;;;5080897;28;20230;-83
2022/03/03 00:03:11;;;;;;;31.53;17.37;;;-0.60;99.90;;;;;;5080427;28;20289;-84
2022/03/03 00:05:38;;;;;;;30.17;16.73;;;-0.60;99.90;;;;;;5075472;28;20289;-84
2022/03/03 00:08:06;;;;;;;32.37;16.63;;;-0.40;1.00;;;;;;5080102;28;20365;-84
2022/03/03 00:10:33;;;;;;;30.30;17.27;;;-0.40;1.00;;;;;;5080168;28;20316;-84
2022/03/03 00:13:00;;;;;;;33.17;17.50;;;-0.20;1.00;;;;;;5080408;28;20222;-84
2022/03/03 00:15:26;;;;;;;33.27;17.60;;;-0.30;99.90;;;;;;5079574;28;20301;-84
2022/03/03 00:17:55;;;;;;;31.73;17.23;;;-0.30;1.00;;;;;;5078118;28;20249;-84
2022/03/03 00:20:21;;;;;;;31.57;16.87;;;-0.10;1.00;;;;;;5070828;28;20277;-84
2022/03/03 00:22:48;;;;;;;30.53;16.10;;;-0.20;1.00;;;;;;5069717;28;20214;-84
2022/03/03 00:25:17;;;;;;;34.87;17.93;;;-0.40;1.00;;;;;;5080018;28;20302;-84
2022/03/03 00:27:44;;;;;;;33.47;17.47;;;-0.20;99.90;;;;;;5078858;28;20702;-84
2022/03/03 00:30:11;;;;;;;32.37;17.23;;;-0.30;1.00;;;;;;5076687;28;20307;-84
2022/03/03 00:32:40;;;;;;;31.83;16.20;;;-0.50;1.00;;;;;;5079307;28;20206;-84
2022/03/03 00:35:09;;;;;;;31.17;16.30;;;-0.40;99.90;;;;;;5078425;28;20229;-84
2022/03/03 00:37:36;;;;;;;33.10;18.37;;;-0.50;99.90;;;;;;5076444;28;20301;-84
2022/03/03 00:40:04;;;;;;;31.30;16.70;;;-0.80;99.90;;;;;;5077882;28;20226;-84
2022/03/03 00:42:31;;;;;;;31.30;17.37;;;-0.70;78.00;;;;;;5077902;28;20206;-84
2022/03/03 00:44:58;;;;;;;31.10;17.27;;;-0.70;99.90;;;;;;5078251;28;20234;-84
2022/03/03 00:47:25;;;;;;;34.70;17.43;;;-0.70;1.00;;;;;;5078575;28;20226;-84
2022/03/03 00:49:52;;;;;;;30.70;16.50;;;-0.70;1.00;;;;;;5078189;28;20221;-84
2022/03/03 00:52:20;;;;;;;30.20;17.60;;;-0.50;1.00;;;;;;5223850;22;20666;-69
2022/03/03 00:54:47;;;;;;;31.70;17.17;;;-0.50;1.00;;;;;;5088439;28;20214;-70
2022/03/03 00:57:14;;;;;;;30.23;16.40;;;-0.60;1.00;;;;;;5090921;28;20585;-70
2022/03/03 00:59:40;;;;;;;30.83;17.17;;;-0.50;1.00;;;;;;5090759;28;20201;-70
2022/03/03 01:02:07;;;;;;;32.10;17.70;;;-0.60;99.90;;;;;;5091702;28;20551;-70
2022/03/03 01:04:34;;;;;;;32.27;17.63;;;-0.80;62.50;;;;;;5091623;28;20596;-70
2022/03/03 01:07:01;;;;;;;30.17;17.10;;;-0.80;1.00;;;;;;5088394;28;20197;-70
2022/03/03 01:09:30;;;;;;;30.30;17.13;;;-0.90;24.80;;;;;;5092134;28;20190;-70
2022/03/03 01:11:56;;;;;;;31.50;16.60;;;-0.70;1.00;;;;;;5097385;28;20205;-70
2022/03/03 01:14:24;;;;;;;31.40;17.70;;;-0.80;1.00;;;;;;5112419;28;20682;-70
2022/03/03 01:16:52;;;;;;;29.77;16.70;;;-1.00;1.00;;;;;;5097162;28;20204;-70
2022/03/03 01:19:19;;;;;;;33.60;16.80;;;-1.00;99.90;;;;;;5101098;28;20292;-70
2022/03/03 01:21:46;;;;;;;35.33;18.37;;;-1.10;89.70;;;;;;5090831;28;20194;-70
2022/03/03 01:24:13;;;;;;;34.37;19.07;;;-0.80;99.90;;;;;;5090697;28;20209;-70
2022/03/03 01:26:41;;;;;;;31.83;17.53;;;-0.90;92.30;;;;;;5091597;28;20208;-70
2022/03/03 01:29:08;;;;;;;33.27;17.67;;;-0.80;99.90;;;;;;5090938;28;20564;-70
2022/03/03 01:31:35;;;;;;;36.30;18.43;;;-0.70;99.90;;;;;;5092558;28;20300;-70
2022/03/03 01:34:02;;;;;;;34.80;19.20;;;-0.70;99.90;;;;;;5093231;28;20202;-70
2022/03/03 01:36:29;;;;;;;33.80;18.07;;;-0.60;99.90;;;;;;5091972;28;20190;-70
2022/03/03 01:38:56;;;;;;;33.90;18.00;;;-0.70;99.90;;;;;;5089030;28;20194;-70
2022/03/03 01:41:23;;;;;;;30.83;17.47;;;-0.70;99.90;;;;;;5089928;28;20201;-70
2022/03/03 01:43:51;;;;;;;34.27;18.73;;;-0.80;99.90;;;;;;5091120;28;20209;-70
2022/03/03 01:46:18;;;;;;;34.37;17.93;;;-0.70;99.90;;;;;;5089091;28;20709;-70
2022/03/03 01:48:45;;;;;;;31.57;17.53;;;-0.80;82.40;;;;;;5089429;28;20274;-70
2022/03/03 01:51:12;;;;;;;35.33;18.03;;;-0.70;99.90;;;;;;5091006;28;20202;-70
2022/03/03 01:53:40;;;;;;;32.03;17.27;;;-0.80;1.00;;;;;;5088354;28;20209;-70
2022/03/03 01:56:08;;;;;;;34.17;17.83;;;-1.00;1.00;;;;;;5090457;28;20278;-70
2022/03/03 01:58:37;;;;;;;30.30;16.83;;;-0.90;1.00;;;;;;5089927;28;20198;-70
2022/03/03 02:01:06;;;;;;;32.57;17.93;;;-1.20;99.90;;;;;;5097572;28;20213;-70
2022/03/03 02:03:33;;;;;;;29.33;17.07;;;-1.20;99.90;;;;;;5096384;28;20264;-70
2022/03/03 02:06:00;;;;;;;30.83;17.30;;;-1.00;1.00;;;;;;5087651;28;20190;-69
2022/03/03 02:08:28;;;;;;;30.73;17.10;;;-1.10;1.00;;;;;;5089587;28;20247;-70
2022/03/03 02:10:56;;;;;;;32.53;16.90;;;-1.20;1.00;;;;;;5089612;28;20246;-70
2022/03/03 02:13:23;;;;;;;32.93;17.20;;;-1.20;1.00;;;;;;5088655;28;20229;-70
2022/03/03 02:15:51;;;;;;;33.63;18.20;;;-1.20;25.30;;;;;;5090393;28;20225;-70
2022/03/03 02:18:19;;;;;;;31.40;16.63;;;-1.20;22.90;;;;;;5090567;28;20279;-70
2022/03/03 02:20:48;;;;;;;32.33;17.03;;;-1.10;99.90;;;;;;5090173;28;20193;-70
2022/03/03 02:23:18;;;;;;;29.63;17.03;;;-1.10;99.90;;;;;;5088931;28;20408;-70
2022/03/03 02:25:46;;;;;;;31.20;17.37;;;-0.90;99.90;;;;;;5089921;28;20237;-70
2022/03/03 02:28:13;;;;;;;33.10;17.33;;;-1.00;1.00;;;;;;5089528;28;20197;-70
2022/03/03 02:30:40;;;;;;;33.80;17.03;;;-1.30;1.00;;;;;;5094983;28;20201;-70
2022/03/03 02:33:07;;;;;;;32.10;17.03;;;-1.30;1.00;;;;;;5090271;28;20267;-70
2022/03/03 02:35:35;;;;;;;32.97;18.10;;;-1.30;1.00;;;;;;5091710;28;20221;-70
2022/03/03 02:38:04;;;;;;;34.73;17.77;;;-1.20;1.00;;;;;;5092440;28;20212;-70
2022/03/03 02:40:31;;;;;;;32.73;17.13;;;-1.30;1.00;;;;;;5093821;28;20749;-70
2022/03/03 02:42:58;;;;;;;32.13;17.20;;;-1.20;1.00;;;;;;5093477;28;20232;-70
2022/03/03 02:45:25;;;;;;;31.70;17.07;;;-1.40;1.00;;;;;;5093859;28;20732;-70
2022/03/03 02:47:52;;;;;;;30.93;17.33;;;-1.40;1.00;;;;;;5091593;28;20655;-70
2022/03/03 02:50:22;;;;;;;31.20;16.73;;;-1.60;99.90;;;;;;5093469;28;20198;-70
2022/03/03 02:52:49;;;;;;;32.10;17.87;;;-1.60;99.90;;;;;;5092150;28;20202;-73
2022/03/03 02:55:18;;;;;;;32.43;17.23;;;-1.40;1.00;;;;;;5103562;28;20630;-73
2022/03/03 02:57:54;;;;;;;31.93;16.43;;;-1.50;1.00;;;;;;5092685;28;20198;-72
2022/03/03 03:00:22;;;;;;;29.57;16.47;;;-1.60;1.00;;;;;;5094243;28;20203;-73
2022/03/03 03:02:49;;;;;;;32.23;18.03;;;-1.50;1.00;;;;;;5091909;28;20202;-73
2022/03/03 03:05:16;;;;;;;29.23;16.30;;;-1.40;1.00;;;;;;5098712;28;20397;-72
2022/03/03 03:07:43;;;;;;;30.63;16.93;;;-1.60;1.00;;;;;;5091859;28;20225;-73
2022/03/03 03:10:11;;;;;;;33.40;17.17;;;-1.70;1.00;;;;;;5092138;28;20198;-73
2022/03/03 03:12:39;;;;;;;28.43;15.43;;;-1.70;1.00;;;;;;5100888;28;20622;-73
2022/03/03 03:15:07;;;;;;;31.27;17.13;;;-1.70;1.00;;;;;;5092502;28;20256;-73
2022/03/03 03:17:34;;;;;;;31.53;17.27;;;-1.60;1.00;;;;;;5092283;28;20216;-73
2022/03/03 03:20:01;;;;;;;32.67;17.67;;;-1.60;1.00;;;;;;5091890;28;20202;-73
2022/03/03 03:22:28;;;;;;;36.50;17.83;;;-1.50;1.00;;;;;;5104291;28;20237;-73
2022/03/03 03:24:55;;;;;;;29.73;16.80;;;-1.60;1.00;;;;;;5093359;28;20243;-73
2022/03/03 03:27:22;;;;;;;28.47;16.80;;;-1.60;1.00;;;;;;5094809;28;20243;-72
2022/03/03 03:29:51;;;;;;;31.97;15.90;;;-1.80;99.90;;;;;;5092043;28;20194;-73
2022/03/03 03:32:18;;;;;;;31.77;17.33;;;-1.80;51.20;;;;;;5092759;28;20233;-73
2022/03/03 03:34:45;;;;;;;33.17;16.37;;;-1.80;99.90;;;;;;5092652;28;20202;-73
2022/03/03 03:37:12;;;;;;;30.33;16.43;;;-1.70;99.90;;;;;;5090678;28;20620;-70
2022/03/03 03:39:39;;;;;;;31.67;18.13;;;-1.50;99.90;;;;;;5091408;28;20241;-70
2022/03/03 03:42:06;;;;;;;32.27;18.10;;;-1.60;1.00;;;;;;5096491;28;20201;-70
2022/03/03 03:44:34;;;;;;;30.30;16.93;;;-1.70;1.00;;;;;;5090942;28;20266;-70
2022/03/03 03:47:02;;;;;;;30.77;17.37;;;-1.80;1.00;;;;;;5089600;28;20209;-70
2022/03/03 03:49:29;;;;;;;33.77;17.43;;;-1.80;1.00;;;;;;5098659;28;20205;-70
2022/03/03 03:51:56;;;;;;;31.40;16.60;;;-1.80;1.00;;;;;;5089113;28;20213;-70
2022/03/03 03:54:23;;;;;;;33.13;17.63;;;-1.60;99.90;;;;;;5096660;28;20236;-70
2022/03/03 03:56:50;;;;;;;33.23;18.07;;;-1.70;1.00;;;;;;5094753;28;20266;-70
2022/03/03 03:59:17;;;;;;;30.73;17.13;;;-1.80;1.00;;;;;;5090788;28;20201;-73
2022/03/03 04:01:44;;;;;;;32.00;17.57;;;-1.80;1.00;;;;;;5107069;28;20200;-73
2022/03/03 04:04:13;;;;;;;33.27;18.33;;;-1.90;1.00;;;;;;5099746;28;20194;-73
2022/03/03 04:06:40;;;;;;;28.73;16.13;;;-2.10;1.00;;;;;;5104949;28;20278;-74
2022/03/03 04:09:07;;;;;;;32.70;16.40;;;-1.70;1.00;;;;;;5107889;28;20259;-74
2022/03/03 04:11:34;;;;;;;31.63;16.73;;;-1.70;1.00;;;;;;5103963;28;20205;-74
2022/03/03 04:14:01;;;;;;;32.47;18.20;;;-2.10;1.00;;;;;;5091580;28;20649;-71
2022/03/03 04:16:28;;;;;;;30.77;16.60;;;-2.10;1.00;;;;;;5070308;28;20214;-71
2022/03/03 04:18:55;;;;;;;28.73;16.10;;;-2.30;1.00;;;;;;5087294;28;20647;-71
2022/03/03 04:21:24;;;;;;;32.83;15.93;;;-2.40;1.00;;;;;;5092600;28;20193;-70
2022/03/03 04:23:51;;;;;;;33.60;17.43;;;-2.40;99.90;;;;;;5097073;28;20297;-70
2022/03/03 04:26:18;;;;;;;28.70;16.07;;;-2.40;1.00;;;;;;5112495;28;20201;-71
2022/03/03 04:28:45;;;;;;;31.83;16.40;;;-2.40;99.90;;;;;;5111309;28;20197;-70
2022/03/03 04:31:12;;;;;;;28.40;15.77;;;-2.40;99.90;;;;;;5111164;28;20258;-70
2022/03/03 04:33:39;;;;;;;35.33;17.60;;;-2.50;99.90;;;;;;5105313;28;20651;-71
2022/03/03 04:36:07;;;;;;;31.37;16.73;;;-2.40;99.90;;;;;;5091805;28;20214;-70
2022/03/03 04:38:35;;;;;;;32.87;16.27;;;-2.30;99.90;;;;;;5090284;28;20236;-70
2022/03/03 04:41:02;;;;;;;30.80;16.70;;;-2.50;1.00;;;;;;5091698;28;20251;-71
2022/03/03 04:43:29;;;;;;;29.53;15.93;;;-2.60;1.00;;;;;;5090658;28;20209;-71
2022/03/03 04:45:56;;;;;;;30.93;17.07;;;-2.40;99.90;;;;;;5090693;28;20197;-74
2022/03/03 04:48:29;;;;;;;32.30;17.33;;;-2.20;99.90;;;;;;5091645;28;20251;-73
2022/03/03 04:50:58;;;;;;;33.30;17.57;;;-2.20;1.00;;;;;;5091626;28;20206;-71
2022/03/03 04:53:25;;;;;;;32.60;16.97;;;-2.20;99.90;;;;;;5090646;28;20557;-71
2022/03/03 04:55:54;;;;;;;33.17;17.40;;;-2.20;99.90;;;;;;5091411;28;20443;-71
2022/03/03 04:58:21;;;;;;;31.63;16.47;;;-2.20;1.00;;;;;;5090369;28;20197;-71
2022/03/03 05:00:49;;;;;;;36.27;18.87;;;-2.00;1.00;;;;;;5090516;28;20201;-71
2022/03/03 05:03:16;;;;;;;33.73;17.13;;;-2.10;1.00;;;;;;5089509;28;20198;-71
2022/03/03 05:05:43;;;;;;;29.80;16.53;;;-2.20;99.90;;;;;;5112075;28;20273;-74
2022/03/03 05:08:11;;;;;;;32.17;17.23;;;-2.70;1.00;;;;;;5111689;28;20201;-74
2022/03/03 05:10:38;;;;;;;32.83;17.23;;;-2.60;90.60;;;;;;5111772;28;20213;-73
2022/03/03 05:13:06;;;;;;;34.33;17.90;;;-2.50;1.00;;;;;;5109650;28;20240;-73
2022/03/03 05:15:33;;;;;;;33.23;17.53;;;-2.40;1.00;;;;;;5109924;28;20634;-73
2022/03/03 05:18:00;;;;;;;30.73;16.93;;;-2.40;1.00;;;;;;5108884;28;20291;-73
2022/03/03 05:20:27;;;;;;;32.30;17.07;;;-2.60;99.90;;;;;;5090911;28;20255;-73
2022/03/03 05:22:54;;;;;;;33.90;17.50;;;-2.80;99.90;;;;;;5090336;28;20266;-74
2022/03/03 05:25:21;;;;;;;29.23;16.47;;;-3.10;1.00;;;;;;5091197;28;20241;-74
2022/03/03 05:27:48;;;;;;;28.27;15.13;;;-2.90;99.90;;;;;;5089458;28;20201;-74
2022/03/03 05:30:17;;;;;;;32.07;16.60;;;-2.90;99.90;;;;;;5090079;28;20201;-74
2022/03/03 05:32:47;;;;;;;30.83;16.87;;;-2.80;99.90;;;;;;5091258;28;20233;-74
2022/03/03 05:35:14;;;;;;;29.70;16.70;;;-3.00;97.40;;;;;;5090110;28;20205;-74
2022/03/03 05:37:42;;;;;;;30.50;16.40;;;-3.20;1.00;;;;;;5089622;28;20198;-74
2022/03/03 05:40:10;;;;;;;34.40;16.30;;;-3.00;99.90;;;;;;5090920;28;20290;-73
2022/03/03 05:42:38;;;;;;;30.67;16.20;;;-2.70;1.00;;;;;;5091164;28;20270;-74
2022/03/03 05:45:06;;;;;;;28.63;15.90;;;-2.60;67.30;;;;;;5090173;28;20606;-74
2022/03/03 05:47:35;;;;;;;27.70;15.87;;;-2.60;99.90;;;;;;5088661;28;20584;-74
2022/03/03 05:50:03;;;;;;;29.70;16.40;;;-2.90;1.00;;;;;;5089202;28;20243;-74
2022/03/03 05:52:31;;;;;;;30.43;16.53;;;-3.00;1.00;;;;;;5087949;28;20210;-74
2022/03/03 05:54:58;;;;;;;32.73;17.10;;;-3.10;1.00;;;;;;5090789;28;20638;-73
2022/03/03 05:57:31;;;;;;;31.80;17.77;;;-3.00;1.00;;;;;;5109990;28;20667;-74
2022/03/03 06:00:01;;;;;;;32.77;16.43;;;-3.10;1.00;;;;;;5110261;28;20197;-73
2022/03/03 06:02:29;;;;;;;31.13;16.37;;;-3.10;1.00;;;;;;5069659;28;20939;-74
2022/03/03 06:04:59;;;;;;;29.57;15.87;;;-2.80;99.90;;;;;;5085308;28;20292;-74
2022/03/03 06:07:29;;;;;;;32.30;17.23;;;-2.60;99.90;;;;;;5088881;28;20659;-74
2022/03/03 06:09:58;;;;;;;29.07;15.50;;;-2.70;1.00;;;;;;5092546;28;20255;-74
2022/03/03 06:12:32;;;;;;;26.97;15.13;;;-3.10;1.00;;;;;;5094641;28;20205;-73
2022/03/03 06:15:04;;;;;;;34.30;17.33;;;-3.00;1.00;;;;;;5093262;28;20274;-74
2022/03/03 06:17:32;;;;;;;31.40;16.43;;;-2.80;1.00;;;;;;5093718;28;20642;-74
2022/03/03 06:20:02;;;;;;;30.67;16.90;;;-2.60;1.00;;;;;;5093993;28;20201;-73
2022/03/03 06:22:29;;;;;;;31.63;16.83;;;-2.80;1.00;;;;;;5094037;28;20198;-73
2022/03/03 06:24:56;;;;;;;33.10;16.60;;;-3.00;99.90;;;;;;5093824;28;20208;-73
2022/03/03 06:27:23;;;;;;;31.57;16.73;;;-2.90;99.90;;;;;;5094237;28;20228;-74
2022/03/03 06:29:50;;;;;;;34.83;16.80;;;-2.60;1.00;;;;;;5094067;28;20202;-73
2022/03/03 06:32:17;;;;;;;34.30;17.50;;;-2.60;1.00;;;;;;5094313;28;20605;-73
2022/03/03 06:34:44;;;;;;;34.33;17.00;;;-2.40;1.00;;;;;;5093563;28;20198;-74
2022/03/03 06:37:13;;;;;;;33.83;17.70;;;-2.30;1.00;;;;;;5091673;28;20293;-74
2022/03/03 06:39:40;;;;;;;31.30;16.87;;;-2.30;99.90;;;;;;5093626;28;20522;-74
2022/03/03 06:42:07;;;;;;;37.70;18.60;;;-2.60;1.00;;;;;;5094184;28;20278;-74
2022/03/03 06:44:34;;;;;;;48.60;24.23;;;-2.50;1.00;;;;;;5094218;28;20201;-74
2022/03/03 06:47:02;;;;;;;40.40;21.60;;;-2.20;99.90;;;;;;5093249;28;20202;-74
2022/03/03 06:49:29;;;;;;;41.00;23.70;;;-2.20;99.90;;;;;;5094068;28;20541;-74
2022/03/03 06:51:58;;;;;;;42.97;21.63;;;-2.50;1.00;;;;;;5092569;28;20236;-70
2022/03/03 06:54:26;;;;;;;53.73;26.03;;;-2.60;1.00;;;;;;5093611;28;20236;-70
2022/03/03 06:56:57;;;;;;;45.03;23.03;;;-2.50;99.90;;;;;;5094645;28;20308;-70
2022/03/03 06:59:26;;;;;;;45.87;23.33;;;-2.50;1.00;;;;;;5093416;28;20211;-70
2022/03/03 07:01:54;;;;;;;51.00;22.90;;;-2.20;1.00;;;;;;5094235;28;20213;-70
2022/03/03 07:04:22;;;;;;;36.77;20.77;;;-2.20;1.00;;;;;;5094551;28;20213;-70
2022/03/03 07:06:50;;;;;;;40.63;20.20;;;-1.80;99.90;;;;;;5093854;28;20216;-70
2022/03/03 07:09:19;;;;;;;34.60;19.20;;;-1.70;1.00;;;;;;5094531;28;20289;-70
2022/03/03 07:11:48;;;;;;;36.93;18.80;;;-1.40;1.00;;;;;;5093472;28;20302;-71
2022/03/03 07:14:15;;;;;;;34.23;18.53;;;-1.40;1.00;;;;;;5094422;28;20227;-70
2022/03/03 07:16:44;;;;;;;33.47;18.40;;;-1.60;1.00;;;;;;5093560;28;20594;-71
2022/03/03 07:19:29;;;;;;;34.07;18.93;;;-1.50;1.00;;;;;;5093982;28;20281;-70
2022/03/03 07:22:07;;;;;;;35.33;19.60;;;-1.10;1.00;;;;;;5092215;28;20228;-71
2022/03/03 07:24:41;;;;;;;31.93;18.13;;;-0.70;1.00;;;;;;5094870;28;20209;-70
2022/03/03 07:27:17;;;;;;;33.30;18.10;;;-0.80;99.90;;;;;;5075870;28;20289;-70
2022/03/03 07:29:48;;;;;;;34.30;18.10;;;-0.30;99.90;;;;;;5092874;28;20205;-71
2022/03/03 07:32:18;;;;;;;35.50;20.10;;;-0.60;1.00;;;;;;5094135;28;20213;-71
2022/03/03 07:34:52;;;;;;;33.27;18.07;;;-0.20;1.00;;;;;;5093856;28;20201;-71
2022/03/03 07:37:26;;;;;;;35.13;18.97;;;0.10;1.00;;;;;;5092006;28;20229;-71
2022/03/03 07:39:57;;;;;;;33.20;19.30;;;0.60;1.00;;;;;;5074952;28;20216;-71
2022/03/03 07:42:25;;;;;;;29.33;18.00;;;0.80;99.90;;;;;;5094119;28;20716;-71
2022/03/03 07:44:52;;;;;;;31.97;17.73;;;1.50;1.00;;;;;;5093729;28;20201;-71
2022/03/03 07:47:20;;;;;;;31.77;17.40;;;3.20;99.90;;;;;;5093060;28;20656;-71
2022/03/03 07:49:47;;;;;;;29.50;16.47;;;3.10;1.00;;;;;;5072909;28;20536;-71
2022/03/03 07:52:14;;;;;;;29.07;16.63;;;3.60;1.00;;;;;;5071796;28;20220;-71
2022/03/03 07:54:41;;;;;;;28.43;17.47;;;3.50;99.90;;;;;;5087255;28;20572;-73
2022/03/03 07:57:12;;;;;;;25.93;16.53;;;2.30;1.00;;;;;;5093513;28;20483;-73
2022/03/03 07:59:46;;;;;;;27.83;17.20;;;1.70;99.90;;;;;;5093218;28;20671;-73
2022/03/03 08:02:20;;;;;;;28.83;17.13;;;1.30;4.20;;;;;;5093719;28;20250;-73
2022/03/03 08:04:50;;;;;;;29.50;16.53;;;1.30;1.00;;;;;;5076713;28;20205;-73
2022/03/03 08:07:18;;;;;;;29.90;18.00;;;2.10;1.00;;;;;;5104981;28;20697;-73
2022/03/03 08:09:48;;;;;;;35.30;18.30;;;2.70;1.00;;;;;;5087182;28;20206;-73
2022/03/03 08:12:16;;;;;;;32.43;17.70;;;2.50;99.90;;;;;;5093785;28;20571;-73
2022/03/03 08:14:46;;;;;;;31.73;17.60;;;3.30;1.00;;;;;;5091200;28;20232;-72
2022/03/03 08:17:15;;;;;;;30.83;17.87;;;3.70;1.00;;;;;;5086556;28;20738;-74
2022/03/03 08:19:44;;;;;;;32.10;18.67;;;4.40;48.50;;;;;;5097326;28;20587;-73
2022/03/03 08:22:14;;;;;;;31.90;19.27;;;4.50;1.00;;;;;;5077369;28;20253;-73
2022/03/03 08:24:43;;;;;;;28.33;18.00;;;4.00;1.00;;;;;;5106761;28;20204;-73
2022/03/03 08:27:11;;;;;;;29.13;18.23;;;3.50;1.00;;;;;;5112899;28;20215;-73
2022/03/03 08:29:38;;;;;;;31.33;18.93;;;3.20;1.00;;;;;;5112759;28;20235;-74
2022/03/03 08:32:11;;;;;;;32.27;18.60;;;3.10;1.00;;;;;;5112736;28;20569;-72
2022/03/03 08:34:43;;;;;;;31.00;19.00;;;3.60;1.00;;;;;;5113091;28;20205;-72
2022/03/03 08:37:18;;;;;;;30.47;18.83;;;4.30;99.90;;;;;;5112773;28;20716;-73
2022/03/03 08:39:46;;;;;;;33.77;20.33;;;3.60;1.00;;;;;;5112226;28;20724;-72
2022/03/03 08:42:16;;;;;;;34.93;18.07;;;4.10;99.90;;;;;;5112699;28;20207;-73
2022/03/03 08:44:44;;;;;;;36.23;19.23;;;3.40;1.00;;;;;;5072916;28;20204;-72
2022/03/03 08:47:15;;;;;;;34.80;19.90;;;3.50;1.00;;;;;;5071788;28;20198;-73
2022/03/03 08:49:45;;;;;;;38.57;21.97;;;3.20;1.00;;;;;;5092298;28;20263;-73
2022/03/03 08:52:12;;;;;;;34.97;20.30;;;3.10;1.00;;;;;;5091041;28;20212;-73
2022/03/03 08:54:39;;;;;;;37.53;20.53;;;3.20;1.00;;;;;;5092979;28;20217;-72
2022/03/03 08:57:06;;;;;;;32.90;20.43;;;3.40;99.90;;;;;;5092422;28;20605;-73
2022/03/03 08:59:33;;;;;;;35.00;21.07;;;3.20;1.00;;;;;;5092082;28;20212;-73
2022/03/03 09:02:01;;;;;;;38.50;21.63;;;3.10;1.00;;;;;;5092395;28;20233;-73
2022/03/03 09:04:29;;;;;;;37.17;21.93;;;2.80;1.00;;;;;;5092590;28;20220;-72
2022/03/03 09:06:56;;;;;;;38.70;21.93;;;2.70;99.90;;;;;;5092561;28;20296;-72
2022/03/03 09:09:23;;;;;;;32.80;20.17;;;2.90;1.00;;;;;;5093484;28;20210;-73
2022/03/03 09:11:50;;;;;;;36.90;23.03;;;2.80;99.90;;;;;;5092451;28;20655;-72
2022/03/03 09:14:17;;;;;;;36.47;22.53;;;3.10;1.00;;;;;;5091612;28;20559;-72
2022/03/03 09:16:43;;;;;;;41.17;24.17;;;3.40;1.00;;;;;;5091349;28;20232;-73
2022/03/03 09:19:10;;;;;;;38.93;23.47;;;3.60;1.00;;;;;;5092494;28;20219;-72
2022/03/03 09:21:38;;;;;;;37.63;23.07;;;4.00;1.00;;;;;;5091802;28;20205;-73
2022/03/03 09:24:06;;;;;;;39.63;23.57;;;4.30;1.00;;;;;;5112166;28;20209;-73
2022/03/03 09:26:34;;;;;;;36.60;22.80;;;4.60;99.90;;;;;;5111403;28;20243;-73
2022/03/03 09:29:01;;;;;;;35.90;23.03;;;4.70;99.90;;;;;;5112403;28;20201;-72
2022/03/03 09:31:28;;;;;;;39.03;23.23;;;4.70;1.00;;;;;;5111598;28;20205;-72
2022/03/03 09:33:55;;;;;;;38.37;23.70;;;4.80;1.00;;;;;;5112477;28;20666;-72
2022/03/03 09:36:22;;;;;;;38.57;23.40;;;4.60;1.00;;;;;;5111642;28;20217;-72
2022/03/03 09:38:50;;;;;;;40.40;23.20;;;4.80;1.00;;;;;;5111628;28;20690;-72
2022/03/03 09:41:17;;;;;;;35.83;22.23;;;4.80;1.00;;;;;;5111658;28;20208;-72
2022/03/03 09:43:44;;;;;;;39.30;23.83;;;5.10;1.00;;;;;;5113155;28;20220;-72
2022/03/03 09:46:12;;;;;;;39.23;24.20;;;5.10;1.00;;;;;;5115534;28;20204;-72
2022/03/03 09:48:39;;;;;;;37.87;24.00;;;5.50;1.00;;;;;;5115723;28;20196;-72
2022/03/03 09:51:06;;;;;;;37.93;24.40;;;5.80;1.00;;;;;;5115967;28;20209;-72
2022/03/03 09:53:33;;;;;;;34.83;23.13;;;5.80;1.00;;;;;;5115277;28;20212;-72
2022/03/03 09:56:01;;;;;;;38.03;23.67;;;5.40;1.00;;;;;;5116244;28;20639;-72
2022/03/03 09:58:28;;;;;;;36.80;25.07;;;5.60;1.00;;;;;;5114958;28;20224;-72
2022/03/03 10:00:57;;;;;;;36.30;23.77;;;5.60;1.00;;;;;;5115932;28;20205;-72
2022/03/03 10:03:31;;;;;;;41.37;25.10;;;5.70;1.00;;;;;;5115833;28;20566;-72
2022/03/03 10:06:00;;;;;;;38.90;23.20;;;6.10;1.00;;;;;;5116020;28;20295;-72
2022/03/03 10:08:28;;;;;;;33.30;22.00;;;6.00;1.00;;;;;;5115485;28;20204;-72
2022/03/03 10:10:56;;;;;;;40.23;25.33;;;6.00;99.90;;;;;;5115847;28;20205;-72
2022/03/03 10:13:25;;;;;;;31.90;21.23;;;6.00;1.00;;;;;;5115713;28;20371;-72
2022/03/03 10:15:56;;;;;;;32.30;22.63;;;5.90;99.90;;;;;;5114973;28;20212;-72
2022/03/03 10:18:25;;;;;;;34.83;22.70;;;6.00;1.00;;;;;;5115413;28;20225;-72
2022/03/03 10:20:53;;;;;;;34.50;22.20;;;6.10;1.00;;;;;;5115092;28;20209;-72
2022/03/03 10:23:24;;;;;;;33.47;22.77;;;6.00;1.00;;;;;;5115013;28;20232;-72
2022/03/03 10:25:53;;;;;;;31.37;19.60;;;6.10;1.00;;;;;;5109673;28;20208;-72
2022/03/03 10:28:22;;;;;;;31.83;20.30;;;6.40;1.00;;;;;;5095115;28;20204;-72
2022/03/03 10:30:59;;;;;;;31.63;21.30;;;6.40;1.00;;;;;;5094492;28;20210;-72
2022/03/03 10:33:29;;;;;;;32.23;21.87;;;6.70;1.00;;;;;;5095352;28;20209;-72
2022/03/03 10:36:14;;;;;;;35.20;22.53;;;6.50;1.00;;;;;;5094542;28;20202;-72
2022/03/03 10:38:47;;;;;;;38.73;23.23;;;6.60;1.00;;;;;;5094179;28;20221;-72
2022/03/03 10:41:35;;;;;;;38.07;24.17;;;6.70;99.90;;;;;;5074619;28;20300;-72
2022/03/03 10:44:05;;;;;;;33.73;22.37;;;6.50;99.90;;;;;;5088906;28;20562;-72
2022/03/03 10:46:34;;;;;;;33.53;22.63;;;6.60;1.00;;;;;;5094197;28;20296;-72
2022/03/03 10:49:17;;;;;;;44.40;23.00;;;6.90;1.00;;;;;;5095272;28;20223;-72
2022/03/03 10:51:44;;;;;;;32.73;23.17;;;6.90;1.00;;;;;;5094006;28;20236;-72
2022/03/03 10:54:14;;;;;;;33.47;22.80;;;7.00;1.00;;;;;;5094367;28;20629;-72
2022/03/03 10:56:46;;;;;;;32.63;22.00;;;7.00;1.00;;;;;;5086559;28;20213;-72
2022/03/03 10:59:17;;;;;;;34.53;22.73;;;7.00;1.00;;;;;;5094454;28;20225;-72
2022/03/03 11:01:45;;;;;;;33.53;21.87;;;6.90;1.00;;;;;;5094107;28;20209;-72
2022/03/03 11:04:18;;;;;;;34.00;22.10;;;7.10;1.00;;;;;;5094329;28;20251;-72
2022/03/03 11:06:45;;;;;;;33.17;21.73;;;7.20;1.00;;;;;;5094911;28;20202;-72
2022/03/03 11:09:12;;;;;;;32.90;20.53;;;7.00;1.00;;;;;;5094819;28;20224;-72
2022/03/03 11:11:39;;;;;;;29.90;20.50;;;7.30;1.00;;;;;;5093721;28;20197;-72
2022/03/03 11:14:06;;;;;;;28.33;18.90;;;7.50;1.00;;;;;;5093681;28;20255;-72
2022/03/03 11:16:33;;;;;;;28.17;18.90;;;7.00;99.90;;;;;;5093387;28;20212;-72
2022/03/03 11:19:02;;;;;;;29.63;18.67;;;7.10;1.00;;;;;;5094150;28;20251;-71
2022/03/03 11:21:29;;;;;;;29.67;18.20;;;7.10;1.00;;;;;;5094486;28;20208;-72
2022/03/03 11:23:57;;;;;;;37.70;19.67;;;7.40;1.00;;;;;;5093229;28;20202;-70
2022/03/03 11:26:27;;;;;;;29.83;19.47;;;7.40;1.00;;;;;;5094472;28;20205;-70
2022/03/03 11:29:02;;;;;;;30.07;19.50;;;7.40;1.00;;;;;;5093323;28;20226;-70
2022/03/03 11:31:32;;;;;;;29.13;19.53;;;7.50;1.00;;;;;;5094038;28;20232;-70
2022/03/03 11:34:22;;;;;;;29.87;19.30;;;7.70;1.00;;;;;;5094037;28;20206;-70
2022/03/03 11:36:50;;;;;;;27.87;18.40;;;7.50;99.90;;;;;;5061146;28;20651;-70
2022/03/03 11:39:42;;;;;;;25.97;16.93;;;7.70;1.00;;;;;;5093364;28;20221;-70
2022/03/03 11:42:27;;;;;;;29.63;18.37;;;7.70;1.00;;;;;;5094252;28;20292;-69
2022/03/03 11:44:56;;;;;;;29.27;19.30;;;7.90;99.90;;;;;;5094204;28;20181;-70
2022/03/03 11:47:26;;;;;;;30.63;19.27;;;7.50;99.90;;;;;;5093155;28;20229;-70
2022/03/03 11:50:12;;;;;;;28.93;18.60;;;7.50;1.00;;;;;;5093689;28;20211;-69
2022/03/03 11:52:41;;;;;;;27.50;18.40;;;7.70;1.00;;;;;;5085053;28;20338;-70
2022/03/03 11:55:37;;;;;;;30.30;19.33;;;7.70;99.90;;;;;;5111101;28;20205;-70
2022/03/03 11:58:07;;;;;;;29.40;18.70;;;7.80;99.90;;;;;;5113421;28;20229;-69
2022/03/03 12:00:35;;;;;;;32.00;18.47;;;7.90;99.90;;;;;;5113598;28;20208;-69
2022/03/03 12:03:05;;;;;;;29.93;19.77;;;7.70;99.90;;;;;;5113026;28;20544;-70
2022/03/03 12:05:43;;;;;;;32.97;20.53;;;7.80;1.00;;;;;;5096072;28;20208;-70
2022/03/03 12:08:38;;;;;;;31.40;20.40;;;8.00;99.90;;;;;;5095500;28;20201;-70
2022/03/03 12:11:09;;;;;;;30.97;19.27;;;8.20;1.00;;;;;;5113482;28;20224;-70
2022/03/03 12:13:45;;;;;;;28.07;17.77;;;8.10;99.90;;;;;;5110170;28;20209;-70
2022/03/03 12:16:29;;;;;;;33.77;20.17;;;8.00;99.90;;;;;;5086614;28;20216;-70
2022/03/03 12:19:07;;;;;;;33.07;20.43;;;8.00;99.90;;;;;;5077179;28;20263;-70
2022/03/03 12:21:38;;;;;;;28.83;18.40;;;8.30;99.90;;;;;;5083845;28;20202;-70
2022/03/03 12:27:15;;;;;;;30.27;18.97;;;8.10;99.90;;;;;;5112828;28;20203;-70
2022/03/03 12:29:52;;;;;;;32.27;19.77;;;8.20;99.90;;;;;;5113176;28;20624;-70
2022/03/03 12:32:37;;;;;;;30.20;19.53;;;8.40;1.00;;;;;;5113449;28;20204;-70
2022/03/03 12:35:10;;;;;;;28.20;17.07;;;8.30;99.90;;;;;;5110064;28;20211;-70
2022/03/03 12:37:44;;;;;;;31.70;18.93;;;8.20;47.40;;;;;;5089863;28;20630;-70
2022/03/03 12:40:14;;;;;;;30.80;19.67;;;8.20;93.10;;;;;;5093609;28;20201;-70
2022/03/03 12:42:44;;;;;;;28.20;17.37;;;8.30;99.90;;;;;;5093995;28;20273;-70
2022/03/03 12:45:13;;;;;;;27.83;15.57;;;8.50;1.00;;;;;;5091530;28;20235;-70
2022/03/03 12:47:42;;;;;;;24.00;15.20;;;8.40;1.00;;;;;;5091654;28;20201;-70
2022/03/03 12:50:12;;;;;;;27.50;16.63;;;8.60;1.00;;;;;;5092734;28;20202;-70